sensor_id;sensor_type;location;lat;lon;timestamp;P1;durP1;ratioP1;P2;durP2;ratioP2
33579;SDS011;19909;43.644;-79.438;2024-02-15T00:01:29;58.90;;;45.38;;
33579;SDS011;19909;43.644;-79.438;2024-02-15T00:03:55;52.08;;;42.08;;
33579;SDS011;19909;43.644;-79.438;2024-02-15T00:06:22;48.15;;;36.42;;
33579;SDS011;19909;43.644;-79.438;2024-02-15T00:08:49;41.08;;;32.72;;
33579;SDS011;19909;43.644;-79.438;2024-02-15T00:11:17;44.20;;;32.28;;
33579;SDS011;19909;43.644;-79.438;2024-02-15T00:13:43;34.13;;;28.92;;
33579;SDS011;19909;43.644;-79.438;2024-02-15T00:16:16;35.03;;;25.75;;
33579;SDS011;19909;43.644;-79.438;2024-02-15T00:18:42;34.38;;;24.33;;
33579;SDS011;19909;43.644;-79.438;2024-02-15T00:21:10;28.45;;;22.50;;
33579;SDS011;19909;43.644;-79.438;2024-02-15T00:23:36;28.20;;;21.42;;
33579;SDS011;19909;43.644;-79.438;2024-02-15T00:26:03;25.15;;;18.48;;
33579;SDS011;19909;43.644;-79.438;2024-02-15T00:28:29;25.15;;;19.65;;
33579;SDS011;19909;43.644;-79.438;2024-02-15T00:30:55;27.27;;;20.17;;
33579;SDS011;19909;43.644;-79.438;2024-02-15T00:33:21;28.52;;;21.23;;
33579;SDS011;19909;43.644;-79.438;2024-02-15T00:35:50;28.88;;;21.88;;
33579;SDS011;19909;43.644;-79.438;2024-02-15T00:38:17;30.10;;;22.98;;
33579;SDS011;19909;43.644;-79.438;2024-02-15T00:40:44;31.58;;;22.67;;
33579;SDS011;19909;43.644;-79.438;2024-02-15T00:43:11;32.72;;;22.05;;
33579;SDS011;19909;43.644;-79.438;2024-02-15T00:45:37;32.08;;;23.90;;
33579;SDS011;19909;43.644;-79.438;2024-02-15T00:48:03;21.50;;;16.33;;
33579;SDS011;19909;43.644;-79.438;2024-02-15T00:50:31;21.17;;;15.75;;
33579;SDS011;19909;43.644;-79.438;2024-02-15T00:52:59;18.38;;;13.98;;
33579;SDS011;19909;43.644;-79.438;2024-02-15T00:55:25;18.23;;;13.73;;
33579;SDS011;19909;43.644;-79.438;2024-02-15T00:57:51;14.73;;;11.88;;
33579;SDS011;19909;43.644;-79.438;2024-02-15T01:00:18;16.63;;;11.20;;
33579;SDS011;19909;43.644;-79.438;2024-02-15T01:02:46;14.07;;;10.18;;
33579;SDS011;19909;43.644;-79.438;2024-02-15T01:05:12;13.05;;;9.80;;
33579;SDS011;19909;43.644;-79.438;2024-02-15T01:07:40;11.85;;;8.70;;
33579;SDS011;19909;43.644;-79.438;2024-02-15T01:10:07;11.90;;;8.50;;
33579;SDS011;19909;43.644;-79.438;2024-02-15T01:12:35;10.77;;;7.30;;
33579;SDS011;19909;43.644;-79.438;2024-02-15T01:15:01;9.05;;;6.95;;
33579;SDS011;19909;43.644;-79.438;2024-02-15T01:17:28;7.60;;;6.40;;
33579;SDS011;19909;43.644;-79.438;2024-02-15T01:19:54;8.30;;;6.53;;
33579;SDS011;19909;43.644;-79.438;2024-02-15T01:22:20;10.00;;;6.47;;
33579;SDS011;19909;43.644;-79.438;2024-02-15T01:24:48;8.35;;;6.15;;
33579;SDS011;19909;43.644;-79.438;2024-02-15T01:27:15;8.70;;;5.95;;
33579;SDS011;19909;43.644;-79.438;2024-02-15T01:29:42;8.40;;;5.72;;
33579;SDS011;19909;43.644;-79.438;2024-02-15T01:32:09;11.02;;;7.25;;
33579;SDS011;19909;43.644;-79.438;2024-02-15T01:34:35;8.20;;;6.18;;
33579;SDS011;19909;43.644;-79.438;2024-02-15T01:37:01;9.57;;;6.88;;
33579;SDS011;19909;43.644;-79.438;2024-02-15T01:39:27;7.75;;;6.32;;
33579;SDS011;19909;43.644;-79.438;2024-02-15T01:41:54;7.95;;;5.88;;
33579;SDS011;19909;43.644;-79.438;2024-02-15T01:44:22;7.35;;;4.65;;
33579;SDS011;19909;43.644;-79.438;2024-02-15T01:46:50;6.20;;;4.85;;
33579;SDS011;19909;43.644;-79.438;2024-02-15T01:49:20;6.10;;;5.05;;
33579;SDS011;19909;43.644;-79.438;2024-02-15T01:51:48;7.50;;;4.18;;
33579;SDS011;19909;43.644;-79.438;2024-02-15T01:54:18;7.18;;;4.75;;
33579;SDS011;19909;43.644;-79.438;2024-02-15T01:56:45;5.63;;;4.07;;
33579;SDS011;19909;43.644;-79.438;2024-02-15T01:59:12;6.05;;;3.40;;
33579;SDS011;19909;43.644;-79.438;2024-02-15T02:01:41;4.68;;;3.22;;
33579;SDS011;19909;43.644;-79.438;2024-02-15T02:04:11;5.60;;;3.10;;
33579;SDS011;19909;43.644;-79.438;2024-02-15T02:06:37;4.00;;;2.80;;
33579;SDS011;19909;43.644;-79.438;2024-02-15T02:09:04;4.65;;;3.08;;
33579;SDS011;19909;43.644;-79.438;2024-02-15T02:11:30;4.30;;;3.30;;
33579;SDS011;19909;43.644;-79.438;2024-02-15T02:13:57;6.68;;;3.55;;
33579;SDS011;19909;43.644;-79.438;2024-02-15T02:16:30;6.28;;;4.10;;
33579;SDS011;19909;43.644;-79.438;2024-02-15T02:18:58;6.80;;;4.82;;
33579;SDS011;19909;43.644;-79.438;2024-02-15T02:21:27;6.63;;;4.30;;
33579;SDS011;19909;43.644;-79.438;2024-02-15T02:23:57;5.22;;;4.30;;
33579;SDS011;19909;43.644;-79.438;2024-02-15T02:26:25;6.68;;;4.90;;
33579;SDS011;19909;43.644;-79.438;2024-02-15T02:28:51;6.18;;;3.95;;
33579;SDS011;19909;43.644;-79.438;2024-02-15T02:31:21;5.03;;;3.63;;
33579;SDS011;19909;43.644;-79.438;2024-02-15T02:33:48;5.47;;;3.80;;
33579;SDS011;19909;43.644;-79.438;2024-02-15T02:36:19;4.45;;;3.22;;
33579;SDS011;19909;43.644;-79.438;2024-02-15T02:38:46;5.60;;;3.10;;
33579;SDS011;19909;43.644;-79.438;2024-02-15T02:41:16;3.97;;;2.70;;
33579;SDS011;19909;43.644;-79.438;2024-02-15T02:43:44;4.75;;;2.60;;
33579;SDS011;19909;43.644;-79.438;2024-02-15T02:46:11;4.63;;;3.22;;
33579;SDS011;19909;43.644;-79.438;2024-02-15T02:48:38;3.28;;;1.98;;
33579;SDS011;19909;43.644;-79.438;2024-02-15T02:51:05;5.40;;;2.72;;
33579;SDS011;19909;43.644;-79.438;2024-02-15T02:53:32;3.25;;;2.15;;
33579;SDS011;19909;43.644;-79.438;2024-02-15T02:55:59;2.97;;;1.83;;
33579;SDS011;19909;43.644;-79.438;2024-02-15T02:58:26;3.00;;;2.53;;
33579;SDS011;19909;43.644;-79.438;2024-02-15T03:00:54;5.45;;;2.60;;
33579;SDS011;19909;43.644;-79.438;2024-02-15T03:03:21;3.70;;;2.60;;
33579;SDS011;19909;43.644;-79.438;2024-02-15T03:05:51;5.03;;;2.58;;
33579;SDS011;19909;43.644;-79.438;2024-02-15T03:08:21;3.47;;;2.38;;
33579;SDS011;19909;43.644;-79.438;2024-02-15T03:10:49;3.58;;;2.33;;
33579;SDS011;19909;43.644;-79.438;2024-02-15T03:13:16;3.95;;;2.67;;
33579;SDS011;19909;43.644;-79.438;2024-02-15T03:15:45;3.85;;;2.10;;
33579;SDS011;19909;43.644;-79.438;2024-02-15T03:18:15;3.60;;;2.22;;
33579;SDS011;19909;43.644;-79.438;2024-02-15T03:20:41;4.05;;;2.33;;
33579;SDS011;19909;43.644;-79.438;2024-02-15T03:23:08;4.10;;;1.88;;
33579;SDS011;19909;43.644;-79.438;2024-02-15T03:25:34;2.92;;;1.60;;
33579;SDS011;19909;43.644;-79.438;2024-02-15T03:28:02;2.20;;;1.50;;
33579;SDS011;19909;43.644;-79.438;2024-02-15T03:30:30;3.70;;;1.55;;
33579;SDS011;19909;43.644;-79.438;2024-02-15T03:32:58;2.58;;;1.30;;
33579;SDS011;19909;43.644;-79.438;2024-02-15T03:35:25;2.45;;;1.20;;
33579;SDS011;19909;43.644;-79.438;2024-02-15T03:37:56;4.07;;;1.38;;
33579;SDS011;19909;43.644;-79.438;2024-02-15T03:40:24;4.03;;;1.20;;
33579;SDS011;19909;43.644;-79.438;2024-02-15T03:42:54;1.85;;;1.20;;
33579;SDS011;19909;43.644;-79.438;2024-02-15T03:45:21;2.70;;;1.75;;
33579;SDS011;19909;43.644;-79.438;2024-02-15T03:47:50;2.33;;;1.42;;
33579;SDS011;19909;43.644;-79.438;2024-02-15T03:50:21;2.80;;;1.40;;
33579;SDS011;19909;43.644;-79.438;2024-02-15T03:52:49;2.22;;;1.52;;
33579;SDS011;19909;43.644;-79.438;2024-02-15T03:55:18;2.45;;;1.55;;
33579;SDS011;19909;43.644;-79.438;2024-02-15T03:57:47;2.50;;;1.40;;
33579;SDS011;19909;43.644;-79.438;2024-02-15T04:00:13;2.28;;;1.45;;
33579;SDS011;19909;43.644;-79.438;2024-02-15T04:02:45;3.17;;;1.50;;
33579;SDS011;19909;43.644;-79.438;2024-02-15T04:05:14;2.92;;;1.30;;
33579;SDS011;19909;43.644;-79.438;2024-02-15T04:07:40;2.50;;;1.30;;
33579;SDS011;19909;43.644;-79.438;2024-02-15T04:10:07;2.72;;;1.30;;
33579;SDS011;19909;43.644;-79.438;2024-02-15T04:12:33;2.42;;;1.00;;
33579;SDS011;19909;43.644;-79.438;2024-02-15T04:15:00;3.42;;;1.30;;
33579;SDS011;19909;43.644;-79.438;2024-02-15T04:17:30;2.90;;;1.30;;
33579;SDS011;19909;43.644;-79.438;2024-02-15T04:20:00;1.40;;;1.13;;
33579;SDS011;19909;43.644;-79.438;2024-02-15T04:22:29;2.58;;;0.90;;
33579;SDS011;19909;43.644;-79.438;2024-02-15T04:24:57;2.65;;;1.20;;
33579;SDS011;19909;43.644;-79.438;2024-02-15T04:27:23;1.73;;;0.90;;
33579;SDS011;19909;43.644;-79.438;2024-02-15T04:29:49;1.08;;;0.70;;
33579;SDS011;19909;43.644;-79.438;2024-02-15T04:32:15;1.40;;;0.88;;
33579;SDS011;19909;43.644;-79.438;2024-02-15T04:34:44;2.95;;;1.10;;
33579;SDS011;19909;43.644;-79.438;2024-02-15T04:37:12;2.53;;;1.27;;
33579;SDS011;19909;43.644;-79.438;2024-02-15T04:39:38;3.45;;;1.58;;
33579;SDS011;19909;43.644;-79.438;2024-02-15T04:42:05;2.13;;;1.17;;
33579;SDS011;19909;43.644;-79.438;2024-02-15T04:44:39;3.03;;;1.33;;
33579;SDS011;19909;43.644;-79.438;2024-02-15T04:47:06;3.13;;;1.20;;
33579;SDS011;19909;43.644;-79.438;2024-02-15T04:49:32;2.47;;;1.40;;
33579;SDS011;19909;43.644;-79.438;2024-02-15T04:51:58;2.22;;;1.42;;
33579;SDS011;19909;43.644;-79.438;2024-02-15T04:54:29;2.55;;;1.58;;
33579;SDS011;19909;43.644;-79.438;2024-02-15T04:56:56;5.22;;;1.27;;
33579;SDS011;19909;43.644;-79.438;2024-02-15T04:59:22;3.03;;;1.30;;
33579;SDS011;19909;43.644;-79.438;2024-02-15T05:01:52;3.85;;;1.27;;
33579;SDS011;19909;43.644;-79.438;2024-02-15T05:04:18;2.13;;;1.05;;
33579;SDS011;19909;43.644;-79.438;2024-02-15T05:06:45;1.75;;;0.90;;
33579;SDS011;19909;43.644;-79.438;2024-02-15T05:09:11;2.30;;;1.20;;
33579;SDS011;19909;43.644;-79.438;2024-02-15T05:11:38;2.20;;;1.30;;
33579;SDS011;19909;43.644;-79.438;2024-02-15T05:14:13;4.32;;;1.42;;
33579;SDS011;19909;43.644;-79.438;2024-02-15T05:16:44;2.55;;;1.45;;
33579;SDS011;19909;43.644;-79.438;2024-02-15T05:19:13;5.32;;;1.30;;
33579;SDS011;19909;43.644;-79.438;2024-02-15T05:21:43;2.50;;;1.20;;
33579;SDS011;19909;43.644;-79.438;2024-02-15T05:24:13;5.38;;;1.45;;
33579;SDS011;19909;43.644;-79.438;2024-02-15T05:26:41;2.00;;;1.05;;
33579;SDS011;19909;43.644;-79.438;2024-02-15T05:29:10;5.07;;;1.33;;
33579;SDS011;19909;43.644;-79.438;2024-02-15T05:31:36;3.13;;;1.00;;
33579;SDS011;19909;43.644;-79.438;2024-02-15T05:34:04;4.55;;;1.45;;
33579;SDS011;19909;43.644;-79.438;2024-02-15T05:36:33;3.63;;;1.20;;
33579;SDS011;19909;43.644;-79.438;2024-02-15T05:38:59;3.50;;;1.20;;
33579;SDS011;19909;43.644;-79.438;2024-02-15T05:41:28;1.75;;;0.90;;
33579;SDS011;19909;43.644;-79.438;2024-02-15T05:43:54;2.58;;;0.82;;
33579;SDS011;19909;43.644;-79.438;2024-02-15T05:46:23;3.08;;;1.00;;
33579;SDS011;19909;43.644;-79.438;2024-02-15T05:48:49;3.58;;;1.10;;
33579;SDS011;19909;43.644;-79.438;2024-02-15T05:51:19;2.30;;;1.20;;
33579;SDS011;19909;43.644;-79.438;2024-02-15T05:53:46;3.67;;;1.10;;
33579;SDS011;19909;43.644;-79.438;2024-02-15T05:56:12;3.88;;;1.27;;
33579;SDS011;19909;43.644;-79.438;2024-02-15T05:58:39;2.50;;;1.13;;
33579;SDS011;19909;43.644;-79.438;2024-02-15T06:01:05;1.65;;;1.10;;
33579;SDS011;19909;43.644;-79.438;2024-02-15T06:03:37;5.03;;;1.15;;
33579;SDS011;19909;43.644;-79.438;2024-02-15T06:06:06;3.92;;;1.33;;
33579;SDS011;19909;43.644;-79.438;2024-02-15T06:08:36;5.97;;;2.38;;
33579;SDS011;19909;43.644;-79.438;2024-02-15T06:11:03;2.05;;;1.00;;
33579;SDS011;19909;43.644;-79.438;2024-02-15T06:13:34;2.03;;;0.87;;
33579;SDS011;19909;43.644;-79.438;2024-02-15T06:16:01;3.03;;;1.00;;
33579;SDS011;19909;43.644;-79.438;2024-02-15T06:18:28;1.77;;;1.10;;
33579;SDS011;19909;43.644;-79.438;2024-02-15T06:20:55;2.72;;;1.15;;
33579;SDS011;19909;43.644;-79.438;2024-02-15T06:23:24;2.90;;;1.10;;
33579;SDS011;19909;43.644;-79.438;2024-02-15T06:25:52;3.78;;;1.10;;
33579;SDS011;19909;43.644;-79.438;2024-02-15T06:28:26;2.70;;;1.40;;
33579;SDS011;19909;43.644;-79.438;2024-02-15T06:31:11;4.03;;;1.10;;
33579;SDS011;19909;43.644;-79.438;2024-02-15T06:33:56;2.67;;;1.25;;
33579;SDS011;19909;43.644;-79.438;2024-02-15T06:36:48;2.85;;;1.55;;
33579;SDS011;19909;43.644;-79.438;2024-02-15T06:39:34;4.25;;;1.10;;
33579;SDS011;19909;43.644;-79.438;2024-02-15T06:42:06;2.03;;;1.30;;
33579;SDS011;19909;43.644;-79.438;2024-02-15T06:44:33;2.75;;;1.65;;
33579;SDS011;19909;43.644;-79.438;2024-02-15T06:47:00;2.75;;;0.90;;
33579;SDS011;19909;43.644;-79.438;2024-02-15T06:49:26;1.27;;;0.90;;
33579;SDS011;19909;43.644;-79.438;2024-02-15T06:51:53;2.78;;;1.00;;
33579;SDS011;19909;43.644;-79.438;2024-02-15T06:54:19;1.55;;;0.90;;
33579;SDS011;19909;43.644;-79.438;2024-02-15T06:56:45;1.73;;;0.93;;
33579;SDS011;19909;43.644;-79.438;2024-02-15T06:59:13;2.38;;;0.90;;
33579;SDS011;19909;43.644;-79.438;2024-02-15T07:01:42;2.88;;;1.00;;
33579;SDS011;19909;43.644;-79.438;2024-02-15T07:04:09;3.42;;;1.00;;
33579;SDS011;19909;43.644;-79.438;2024-02-15T07:06:36;1.98;;;0.95;;
33579;SDS011;19909;43.644;-79.438;2024-02-15T07:09:03;2.05;;;0.98;;
33579;SDS011;19909;43.644;-79.438;2024-02-15T07:11:33;3.75;;;1.10;;
33579;SDS011;19909;43.644;-79.438;2024-02-15T07:14:02;4.15;;;1.00;;
33579;SDS011;19909;43.644;-79.438;2024-02-15T07:16:32;2.80;;;1.10;;
33579;SDS011;19909;43.644;-79.438;2024-02-15T07:18:59;1.25;;;0.85;;
33579;SDS011;19909;43.644;-79.438;2024-02-15T07:21:26;1.85;;;1.00;;
33579;SDS011;19909;43.644;-79.438;2024-02-15T07:23:55;2.08;;;0.95;;
33579;SDS011;19909;43.644;-79.438;2024-02-15T07:26:23;2.95;;;0.95;;
33579;SDS011;19909;43.644;-79.438;2024-02-15T07:28:55;2.05;;;0.70;;
33579;SDS011;19909;43.644;-79.438;2024-02-15T07:31:22;2.67;;;0.80;;
33579;SDS011;19909;43.644;-79.438;2024-02-15T07:33:52;2.45;;;0.68;;
33579;SDS011;19909;43.644;-79.438;2024-02-15T07:36:22;2.83;;;0.70;;
33579;SDS011;19909;43.644;-79.438;2024-02-15T07:38:49;1.35;;;0.60;;
33579;SDS011;19909;43.644;-79.438;2024-02-15T07:41:20;1.55;;;0.75;;
33579;SDS011;19909;43.644;-79.438;2024-02-15T07:43:50;1.15;;;0.80;;
33579;SDS011;19909;43.644;-79.438;2024-02-15T07:46:20;0.75;;;0.68;;
33579;SDS011;19909;43.644;-79.438;2024-02-15T07:48:47;3.67;;;0.80;;
33579;SDS011;19909;43.644;-79.438;2024-02-15T07:51:15;1.33;;;0.82;;
33579;SDS011;19909;43.644;-79.438;2024-02-15T07:53:45;2.35;;;0.93;;
33579;SDS011;19909;43.644;-79.438;2024-02-15T07:56:13;2.03;;;0.90;;
33579;SDS011;19909;43.644;-79.438;2024-02-15T07:58:44;1.40;;;0.80;;
33579;SDS011;19909;43.644;-79.438;2024-02-15T08:01:15;1.35;;;0.90;;
33579;SDS011;19909;43.644;-79.438;2024-02-15T08:03:42;1.35;;;0.65;;
33579;SDS011;19909;43.644;-79.438;2024-02-15T08:06:15;2.03;;;0.65;;
33579;SDS011;19909;43.644;-79.438;2024-02-15T08:08:43;1.10;;;0.43;;
33579;SDS011;19909;43.644;-79.438;2024-02-15T08:11:12;1.10;;;0.68;;
33579;SDS011;19909;43.644;-79.438;2024-02-15T08:13:49;1.50;;;0.50;;
33579;SDS011;19909;43.644;-79.438;2024-02-15T08:16:19;1.00;;;0.52;;
33579;SDS011;19909;43.644;-79.438;2024-02-15T08:18:52;1.30;;;0.60;;
33579;SDS011;19909;43.644;-79.438;2024-02-15T08:21:26;2.03;;;0.75;;
33579;SDS011;19909;43.644;-79.438;2024-02-15T08:23:54;1.42;;;0.52;;
33579;SDS011;19909;43.644;-79.438;2024-02-15T08:26:21;1.10;;;0.50;;
33579;SDS011;19909;43.644;-79.438;2024-02-15T08:28:47;0.75;;;0.60;;
33579;SDS011;19909;43.644;-79.438;2024-02-15T08:31:13;1.23;;;0.63;;
33579;SDS011;19909;43.644;-79.438;2024-02-15T08:33:44;1.65;;;0.70;;
33579;SDS011;19909;43.644;-79.438;2024-02-15T08:36:11;1.38;;;0.90;;
33579;SDS011;19909;43.644;-79.438;2024-02-15T08:38:41;1.98;;;0.68;;
33579;SDS011;19909;43.644;-79.438;2024-02-15T08:41:07;1.05;;;0.80;;
33579;SDS011;19909;43.644;-79.438;2024-02-15T08:43:36;1.35;;;0.90;;
33579;SDS011;19909;43.644;-79.438;2024-02-15T08:46:05;1.23;;;0.80;;
33579;SDS011;19909;43.644;-79.438;2024-02-15T08:48:32;1.30;;;0.60;;
33579;SDS011;19909;43.644;-79.438;2024-02-15T08:50:58;0.98;;;0.65;;
33579;SDS011;19909;43.644;-79.438;2024-02-15T08:53:24;1.67;;;0.50;;
33579;SDS011;19909;43.644;-79.438;2024-02-15T08:55:52;0.95;;;0.50;;
33579;SDS011;19909;43.644;-79.438;2024-02-15T08:58:18;0.82;;;0.50;;
33579;SDS011;19909;43.644;-79.438;2024-02-15T09:00:46;1.58;;;0.70;;
33579;SDS011;19909;43.644;-79.438;2024-02-15T09:03:13;1.05;;;0.47;;
33579;SDS011;19909;43.644;-79.438;2024-02-15T09:05:39;0.65;;;0.50;;
33579;SDS011;19909;43.644;-79.438;2024-02-15T09:08:06;0.68;;;0.50;;
33579;SDS011;19909;43.644;-79.438;2024-02-15T09:10:32;1.35;;;0.70;;
33579;SDS011;19909;43.644;-79.438;2024-02-15T09:13:01;2.08;;;0.60;;
33579;SDS011;19909;43.644;-79.438;2024-02-15T09:15:27;2.45;;;0.93;;
33579;SDS011;19909;43.644;-79.438;2024-02-15T09:17:55;0.90;;;0.80;;
33579;SDS011;19909;43.644;-79.438;2024-02-15T09:20:23;2.83;;;0.63;;
33579;SDS011;19909;43.644;-79.438;2024-02-15T09:22:53;1.50;;;0.80;;
33579;SDS011;19909;43.644;-79.438;2024-02-15T09:25:21;1.35;;;0.75;;
33579;SDS011;19909;43.644;-79.438;2024-02-15T09:27:51;0.98;;;0.57;;
33579;SDS011;19909;43.644;-79.438;2024-02-15T09:30:19;0.80;;;0.60;;
33579;SDS011;19909;43.644;-79.438;2024-02-15T09:32:45;1.00;;;0.43;;
33579;SDS011;19909;43.644;-79.438;2024-02-15T09:35:12;0.90;;;0.40;;
33579;SDS011;19909;43.644;-79.438;2024-02-15T09:37:42;0.90;;;0.40;;
33579;SDS011;19909;43.644;-79.438;2024-02-15T09:40:10;0.80;;;0.40;;
33579;SDS011;19909;43.644;-79.438;2024-02-15T09:42:38;1.75;;;0.68;;
33579;SDS011;19909;43.644;-79.438;2024-02-15T09:45:07;1.08;;;0.60;;
33579;SDS011;19909;43.644;-79.438;2024-02-15T09:47:40;2.60;;;0.57;;
33579;SDS011;19909;43.644;-79.438;2024-02-15T09:50:11;1.30;;;0.70;;
33579;SDS011;19909;43.644;-79.438;2024-02-15T09:52:47;1.35;;;0.50;;
33579;SDS011;19909;43.644;-79.438;2024-02-15T09:55:18;1.67;;;0.60;;
33579;SDS011;19909;43.644;-79.438;2024-02-15T09:57:45;2.95;;;0.60;;
33579;SDS011;19909;43.644;-79.438;2024-02-15T10:00:12;1.58;;;1.10;;
33579;SDS011;19909;43.644;-79.438;2024-02-15T10:02:43;1.38;;;0.80;;
33579;SDS011;19909;43.644;-79.438;2024-02-15T10:05:10;0.60;;;0.50;;
33579;SDS011;19909;43.644;-79.438;2024-02-15T10:07:40;0.98;;;0.70;;
33579;SDS011;19909;43.644;-79.438;2024-02-15T10:12:46;0.70;;;0.50;;
33579;SDS011;19909;43.644;-79.438;2024-02-15T10:18:10;1.42;;;0.68;;
33579;SDS011;19909;43.644;-79.438;2024-02-15T10:20:38;1.83;;;0.80;;
33579;SDS011;19909;43.644;-79.438;2024-02-15T10:25:34;1.25;;;0.80;;
33579;SDS011;19909;43.644;-79.438;2024-02-15T10:28:03;1.15;;;0.60;;
33579;SDS011;19909;43.644;-79.438;2024-02-15T10:30:33;1.42;;;0.75;;
33579;SDS011;19909;43.644;-79.438;2024-02-15T10:33:00;1.15;;;0.70;;
33579;SDS011;19909;43.644;-79.438;2024-02-15T10:35:27;1.80;;;0.90;;
33579;SDS011;19909;43.644;-79.438;2024-02-15T10:38:05;0.75;;;0.70;;
33579;SDS011;19909;43.644;-79.438;2024-02-15T10:40:33;1.20;;;1.00;;
33579;SDS011;19909;43.644;-79.438;2024-02-15T10:42:59;3.63;;;0.80;;
33579;SDS011;19909;43.644;-79.438;2024-02-15T10:45:34;1.45;;;0.70;;
33579;SDS011;19909;43.644;-79.438;2024-02-15T10:48:02;0.80;;;0.60;;
33579;SDS011;19909;43.644;-79.438;2024-02-15T10:50:33;1.20;;;0.60;;
33579;SDS011;19909;43.644;-79.438;2024-02-15T10:52:59;2.05;;;0.73;;
33579;SDS011;19909;43.644;-79.438;2024-02-15T10:58:19;1.00;;;0.50;;
33579;SDS011;19909;43.644;-79.438;2024-02-15T11:00:49;0.95;;;0.60;;
33579;SDS011;19909;43.644;-79.438;2024-02-15T11:03:23;1.05;;;0.68;;
33579;SDS011;19909;43.644;-79.438;2024-02-15T11:05:57;1.63;;;1.05;;
33579;SDS011;19909;43.644;-79.438;2024-02-15T11:08:28;0.98;;;0.70;;
33579;SDS011;19909;43.644;-79.438;2024-02-15T11:10:54;1.85;;;0.80;;
33579;SDS011;19909;43.644;-79.438;2024-02-15T11:13:24;0.98;;;0.63;;
33579;SDS011;19909;43.644;-79.438;2024-02-15T11:15:51;1.92;;;0.88;;
33579;SDS011;19909;43.644;-79.438;2024-02-15T11:21:07;1.67;;;0.80;;
33579;SDS011;19909;43.644;-79.438;2024-02-15T11:23:34;2.15;;;0.75;;
33579;SDS011;19909;43.644;-79.438;2024-02-15T11:26:00;1.08;;;0.77;;
33579;SDS011;19909;43.644;-79.438;2024-02-15T11:28:47;0.90;;;0.70;;
33579;SDS011;19909;43.644;-79.438;2024-02-15T11:40:23;0.98;;;0.60;;
33579;SDS011;19909;43.644;-79.438;2024-02-15T11:42:55;0.73;;;0.60;;
33579;SDS011;19909;43.644;-79.438;2024-02-15T11:45:27;2.05;;;0.75;;
33579;SDS011;19909;43.644;-79.438;2024-02-15T11:48:08;1.33;;;0.80;;
33579;SDS011;19909;43.644;-79.438;2024-02-15T11:50:38;1.00;;;0.73;;
33579;SDS011;19909;43.644;-79.438;2024-02-15T11:53:06;2.08;;;0.70;;
33579;SDS011;19909;43.644;-79.438;2024-02-15T11:55:36;1.20;;;0.90;;
33579;SDS011;19909;43.644;-79.438;2024-02-15T11:58:04;1.88;;;0.90;;
33579;SDS011;19909;43.644;-79.438;2024-02-15T12:00:44;1.60;;;0.70;;
33579;SDS011;19909;43.644;-79.438;2024-02-15T12:03:28;1.98;;;0.70;;
33579;SDS011;19909;43.644;-79.438;2024-02-15T12:06:16;1.95;;;0.63;;
33579;SDS011;19909;43.644;-79.438;2024-02-15T12:09:02;1.20;;;0.50;;
33579;SDS011;19909;43.644;-79.438;2024-02-15T12:11:46;1.73;;;0.55;;
33579;SDS011;19909;43.644;-79.438;2024-02-15T12:14:41;0.70;;;0.60;;
33579;SDS011;19909;43.644;-79.438;2024-02-15T12:17:25;0.85;;;0.50;;
33579;SDS011;19909;43.644;-79.438;2024-02-15T12:20:10;1.45;;;0.82;;
33579;SDS011;19909;43.644;-79.438;2024-02-15T12:25:16;0.75;;;0.70;;
33579;SDS011;19909;43.644;-79.438;2024-02-15T12:27:46;1.30;;;0.70;;
33579;SDS011;19909;43.644;-79.438;2024-02-15T12:30:19;0.73;;;0.60;;
33579;SDS011;19909;43.644;-79.438;2024-02-15T12:32:49;1.50;;;0.77;;
33579;SDS011;19909;43.644;-79.438;2024-02-15T12:35:15;1.48;;;0.90;;
33579;SDS011;19909;43.644;-79.438;2024-02-15T12:40:33;1.27;;;0.75;;
33579;SDS011;19909;43.644;-79.438;2024-02-15T12:43:01;1.13;;;0.60;;
33579;SDS011;19909;43.644;-79.438;2024-02-15T12:45:31;2.72;;;0.77;;
33579;SDS011;19909;43.644;-79.438;2024-02-15T12:48:05;0.85;;;0.68;;
33579;SDS011;19909;43.644;-79.438;2024-02-15T12:50:32;0.85;;;0.50;;
33579;SDS011;19909;43.644;-79.438;2024-02-15T12:52:59;0.98;;;0.60;;
33579;SDS011;19909;43.644;-79.438;2024-02-15T12:55:29;1.02;;;0.50;;
33579;SDS011;19909;43.644;-79.438;2024-02-15T12:57:59;1.75;;;0.80;;
33579;SDS011;19909;43.644;-79.438;2024-02-15T13:00:33;1.92;;;0.60;;
33579;SDS011;19909;43.644;-79.438;2024-02-15T13:03:07;1.17;;;0.50;;
33579;SDS011;19909;43.644;-79.438;2024-02-15T13:05:37;1.63;;;0.80;;
33579;SDS011;19909;43.644;-79.438;2024-02-15T13:08:04;1.85;;;0.45;;
33579;SDS011;19909;43.644;-79.438;2024-02-15T13:10:35;1.38;;;0.60;;
33579;SDS011;19909;43.644;-79.438;2024-02-15T13:13:01;1.67;;;0.77;;
33579;SDS011;19909;43.644;-79.438;2024-02-15T13:15:27;1.25;;;0.70;;
33579;SDS011;19909;43.644;-79.438;2024-02-15T13:17:58;0.70;;;0.47;;
33579;SDS011;19909;43.644;-79.438;2024-02-15T13:20:25;1.48;;;0.63;;
33579;SDS011;19909;43.644;-79.438;2024-02-15T13:22:59;1.15;;;0.63;;
33579;SDS011;19909;43.644;-79.438;2024-02-15T13:25:48;0.88;;;0.45;;
33579;SDS011;19909;43.644;-79.438;2024-02-15T13:28:17;1.67;;;0.60;;
33579;SDS011;19909;43.644;-79.438;2024-02-15T13:30:44;0.93;;;0.40;;
33579;SDS011;19909;43.644;-79.438;2024-02-15T13:33:11;2.15;;;0.65;;
33579;SDS011;19909;43.644;-79.438;2024-02-15T13:35:38;2.40;;;0.88;;
33579;SDS011;19909;43.644;-79.438;2024-02-15T13:38:04;1.25;;;0.65;;
33579;SDS011;19909;43.644;-79.438;2024-02-15T13:40:34;1.00;;;0.52;;
33579;SDS011;19909;43.644;-79.438;2024-02-15T13:43:00;1.60;;;0.80;;
33579;SDS011;19909;43.644;-79.438;2024-02-15T13:45:42;2.28;;;0.70;;
33579;SDS011;19909;43.644;-79.438;2024-02-15T13:48:10;1.10;;;0.60;;
33579;SDS011;19909;43.644;-79.438;2024-02-15T13:50:42;1.60;;;0.80;;
33579;SDS011;19909;43.644;-79.438;2024-02-15T13:53:09;1.42;;;0.63;;
33579;SDS011;19909;43.644;-79.438;2024-02-15T13:55:35;1.25;;;0.63;;
33579;SDS011;19909;43.644;-79.438;2024-02-15T13:58:03;1.33;;;0.30;;
33579;SDS011;19909;43.644;-79.438;2024-02-15T14:00:29;1.17;;;0.47;;
33579;SDS011;19909;43.644;-79.438;2024-02-15T14:02:59;0.75;;;0.40;;
33579;SDS011;19909;43.644;-79.438;2024-02-15T14:05:27;1.00;;;0.50;;
33579;SDS011;19909;43.644;-79.438;2024-02-15T14:07:55;1.42;;;0.50;;
33579;SDS011;19909;43.644;-79.438;2024-02-15T14:10:24;1.20;;;0.40;;
33579;SDS011;19909;43.644;-79.438;2024-02-15T14:12:52;1.23;;;0.40;;
33579;SDS011;19909;43.644;-79.438;2024-02-15T14:15:29;0.47;;;0.30;;
33579;SDS011;19909;43.644;-79.438;2024-02-15T14:17:59;0.57;;;0.43;;
33579;SDS011;19909;43.644;-79.438;2024-02-15T14:20:26;1.17;;;0.50;;
33579;SDS011;19909;43.644;-79.438;2024-02-15T14:22:53;0.38;;;0.30;;
33579;SDS011;19909;43.644;-79.438;2024-02-15T14:25:25;0.60;;;0.30;;
33579;SDS011;19909;43.644;-79.438;2024-02-15T14:27:55;0.93;;;0.43;;
33579;SDS011;19909;43.644;-79.438;2024-02-15T14:30:23;0.55;;;0.40;;
33579;SDS011;19909;43.644;-79.438;2024-02-15T14:33:08;0.70;;;0.30;;
33579;SDS011;19909;43.644;-79.438;2024-02-15T14:35:37;1.23;;;0.38;;
33579;SDS011;19909;43.644;-79.438;2024-02-15T14:38:08;0.47;;;0.38;;
33579;SDS011;19909;43.644;-79.438;2024-02-15T14:40:39;0.40;;;0.28;;
33579;SDS011;19909;43.644;-79.438;2024-02-15T14:43:08;0.52;;;0.35;;
33579;SDS011;19909;43.644;-79.438;2024-02-15T14:45:38;0.35;;;0.20;;
33579;SDS011;19909;43.644;-79.438;2024-02-15T14:48:08;0.32;;;0.17;;
33579;SDS011;19909;43.644;-79.438;2024-02-15T14:50:38;0.20;;;0.20;;
33579;SDS011;19909;43.644;-79.438;2024-02-15T14:53:05;0.50;;;0.32;;
33579;SDS011;19909;43.644;-79.438;2024-02-15T14:55:34;0.90;;;0.30;;
33579;SDS011;19909;43.644;-79.438;2024-02-15T14:58:07;1.85;;;0.52;;